createdAt,value
2023-02-02T00:01:22.235Z,38.14
2023-02-02T00:03:51.083Z,38.05
2023-02-02T00:06:22.608Z,38.17
2023-02-02T00:08:49.549Z,38.05
2023-02-02T00:11:17.362Z,38.02
2023-02-02T00:13:44.279Z,38.00
2023-02-02T00:16:26.235Z,38.06
2023-02-02T00:18:57.156Z,38.10
2023-02-02T00:21:24.244Z,38.00
2023-02-02T00:23:51.502Z,38.02
2023-02-02T00:26:18.832Z,38.02
2023-02-02T00:28:45.737Z,38.12
2023-02-02T00:31:12.384Z,38.20
2023-02-02T00:33:38.882Z,38.10
2023-02-02T00:36:05.655Z,38.00
2023-02-02T00:38:32.389Z,38.06
2023-02-02T00:40:58.902Z,38.13
2023-02-02T00:43:25.362Z,38.14
2023-02-02T00:45:52.021Z,38.20
2023-02-02T00:48:18.731Z,37.97
2023-02-02T00:50:45.570Z,38.20
2023-02-02T00:53:12.034Z,38.00
2023-02-02T00:55:38.515Z,38.04
2023-02-02T00:58:05.100Z,38.11
2023-02-02T01:00:31.588Z,38.13
2023-02-02T01:03:04.232Z,38.02
2023-02-02T01:05:32.146Z,37.96
2023-02-02T01:07:58.636Z,38.05
2023-02-02T01:10:25.447Z,38.08
2023-02-02T01:12:52.235Z,38.20
2023-02-02T01:19:58.254Z,38.08
2023-02-02T01:22:25.084Z,38.12
2023-02-02T01:24:51.818Z,38.14
2023-02-02T01:27:18.985Z,38.22
2023-02-02T01:29:45.504Z,38.05
2023-02-02T01:32:12.234Z,38.27
2023-02-02T01:34:41.813Z,38.09
2023-02-02T01:37:09.541Z,38.23
2023-02-02T01:39:36.389Z,38.23
2023-02-02T01:42:03.766Z,38.27
2023-02-02T01:45:14.463Z,38.23
2023-02-02T01:47:45.900Z,38.24
2023-02-02T01:50:15.586Z,38.25
2023-02-02T01:52:45.892Z,38.17
2023-02-02T01:55:15.807Z,38.25
2023-02-02T01:57:50.099Z,38.27
2023-02-02T02:00:18.628Z,38.34
2023-02-02T02:02:48.537Z,38.35
2023-02-02T02:05:19.388Z,38.26
2023-02-02T02:07:49.336Z,38.12
2023-02-02T02:10:18.316Z,38.29
2023-02-02T02:12:46.176Z,38.27
2023-02-02T02:15:30.985Z,38.07
2023-02-02T02:17:57.390Z,38.31
2023-02-02T02:21:19.975Z,38.33
2023-02-02T02:24:42.301Z,38.40
2023-02-02T02:27:26.898Z,38.38
2023-02-02T02:30:12.174Z,38.36
2023-02-02T02:32:56.559Z,38.48
2023-02-02T02:35:33.280Z,38.30
2023-02-02T02:38:04.893Z,38.29
2023-02-02T02:40:41.283Z,38.38
2023-02-02T02:43:15.567Z,38.32
2023-02-02T02:45:44.927Z,38.31
2023-02-02T02:48:11.614Z,38.42
2023-02-02T02:50:38.386Z,38.27
2023-02-02T02:53:14.152Z,38.35
2023-02-02T02:55:49.881Z,38.49
2023-02-02T02:58:40.407Z,38.43
2023-02-02T03:01:20.152Z,38.44
2023-02-02T03:04:04.600Z,38.40
2023-02-02T03:07:10.422Z,38.49
2023-02-02T03:09:41.262Z,38.53
2023-02-02T03:12:08.990Z,38.53
2023-02-02T03:14:37.027Z,38.39
2023-02-02T03:17:03.879Z,38.42
2023-02-02T03:19:30.436Z,38.56
2023-02-02T03:21:56.910Z,38.46
2023-02-02T03:24:23.417Z,38.45
2023-02-02T03:26:50.069Z,38.37
2023-02-02T03:29:17.404Z,38.53
2023-02-02T03:31:44.076Z,38.42
2023-02-02T03:34:10.609Z,38.49
2023-02-02T03:36:37.129Z,38.56
2023-02-02T03:39:03.825Z,38.37
2023-02-02T03:41:30.315Z,38.50
2023-02-02T03:43:56.791Z,38.56
2023-02-02T03:46:23.312Z,38.51
2023-02-02T03:48:49.870Z,38.65
2023-02-02T03:51:17.007Z,38.51
2023-02-02T03:53:49.499Z,38.59
2023-02-02T03:56:16.654Z,38.65
2023-02-02T03:58:43.087Z,38.66
2023-02-02T04:01:13.661Z,38.63
2023-02-02T04:03:40.236Z,38.65
2023-02-02T04:06:06.796Z,38.58
2023-02-02T04:08:34.156Z,38.57
2023-02-02T04:11:01.114Z,38.65
2023-02-02T04:13:27.765Z,38.53
2023-02-02T04:15:59.741Z,38.53
2023-02-02T04:18:26.560Z,38.61
2023-02-02T04:20:57.784Z,38.62
2023-02-02T04:23:24.394Z,38.70
2023-02-02T04:25:52.106Z,38.63
2023-02-02T04:28:18.776Z,38.67
2023-02-02T04:30:45.316Z,38.54
2023-02-02T04:33:11.848Z,38.63
2023-02-02T04:35:38.351Z,38.49
2023-02-02T04:38:05.179Z,38.85
2023-02-02T04:40:31.697Z,38.52
2023-02-02T04:42:58.402Z,38.72
2023-02-02T04:45:25.257Z,38.64
2023-02-02T04:47:52.053Z,38.59
2023-02-02T04:50:18.634Z,38.56
2023-02-02T04:52:45.139Z,38.67
2023-02-02T04:55:11.711Z,38.60
2023-02-02T04:57:38.539Z,38.62
2023-02-02T05:00:05.750Z,38.74
2023-02-02T05:02:35.854Z,38.80
2023-02-02T05:05:02.657Z,38.95
2023-02-02T05:07:30.219Z,38.78
2023-02-02T05:09:56.703Z,38.62
2023-02-02T05:12:23.180Z,38.77
2023-02-02T05:14:49.701Z,38.60
2023-02-02T05:17:16.230Z,38.69
2023-02-02T05:19:43.131Z,38.40
2023-02-02T05:22:09.614Z,38.53
2023-02-02T05:24:36.072Z,38.70
2023-02-02T05:27:02.545Z,38.66
2023-02-02T05:29:30.569Z,38.76
2023-02-02T05:31:58.582Z,38.67
2023-02-02T05:34:25.175Z,38.47
2023-02-02T05:36:51.721Z,38.51
2023-02-02T05:39:18.402Z,38.54
2023-02-02T05:41:44.907Z,38.50
2023-02-02T05:44:13.524Z,38.53
2023-02-02T05:46:40.147Z,38.42
2023-02-02T05:49:06.641Z,38.47
2023-02-02T05:51:41.998Z,38.61
2023-02-02T05:54:08.717Z,38.44
2023-02-02T05:56:35.262Z,38.38
2023-02-02T05:59:01.862Z,38.60
2023-02-02T06:01:28.519Z,38.47
2023-02-02T06:03:55.045Z,38.68
2023-02-02T06:06:21.561Z,38.64
2023-02-02T06:08:48.084Z,38.54
2023-02-02T06:11:17.098Z,38.40
2023-02-02T06:13:46.047Z,38.36
2023-02-02T06:16:12.869Z,38.54
2023-02-02T06:18:39.467Z,38.51
2023-02-02T06:21:07.016Z,38.45
2023-02-02T06:23:34.316Z,38.32
2023-02-02T06:26:01.116Z,38.42
2023-02-02T06:28:27.631Z,38.39
2023-02-02T06:30:54.229Z,38.32
2023-02-02T06:33:20.748Z,38.30
2023-02-02T06:35:47.216Z,38.39
2023-02-02T06:38:13.785Z,38.45
2023-02-02T06:40:40.286Z,38.20
2023-02-02T06:43:06.786Z,38.18
2023-02-02T06:45:33.343Z,38.32
2023-02-02T06:48:03.480Z,38.12
2023-02-02T06:50:30.541Z,38.29
2023-02-02T06:52:57.092Z,38.29
2023-02-02T06:55:23.914Z,38.05
2023-02-02T06:58:00.307Z,38.20
2023-02-02T07:00:28.792Z,38.24
2023-02-02T07:02:55.909Z,37.99
2023-02-02T07:05:24.238Z,38.14
2023-02-02T07:07:51.390Z,38.30
2023-02-02T07:15:34.670Z,38.06
2023-02-02T07:20:27.984Z,38.03
2023-02-02T07:22:54.524Z,38.15
2023-02-02T07:25:21.060Z,38.00
2023-02-02T07:27:50.113Z,38.03
2023-02-02T07:30:17.145Z,38.01
2023-02-02T07:32:50.722Z,39.72
2023-02-02T07:35:17.636Z,39.55
2023-02-02T07:37:44.143Z,40.08
2023-02-02T07:40:11.420Z,40.06
2023-02-02T07:42:37.942Z,40.50
2023-02-02T07:45:24.503Z,41.45
2023-02-02T07:47:59.794Z,41.43
2023-02-02T07:50:28.522Z,42.29
2023-02-02T07:52:55.456Z,42.05
2023-02-02T07:55:22.237Z,41.64
2023-02-02T07:57:48.809Z,41.64
2023-02-02T08:00:15.618Z,41.89
2023-02-02T08:02:42.200Z,41.34
2023-02-02T08:05:09.075Z,42.22
2023-02-02T08:07:35.729Z,41.55
2023-02-02T08:10:02.408Z,42.05
2023-02-02T08:12:29.305Z,41.89
2023-02-02T08:14:55.897Z,41.82
2023-02-02T08:17:23.558Z,41.79
2023-02-02T08:19:50.695Z,42.00
2023-02-02T08:22:19.419Z,41.96
2023-02-02T08:24:46.776Z,41.40
2023-02-02T08:27:13.655Z,41.55
2023-02-02T08:29:40.132Z,41.41
2023-02-02T08:32:07.448Z,41.21
2023-02-02T08:34:36.871Z,41.35
2023-02-02T08:37:03.993Z,41.15
2023-02-02T08:39:30.737Z,41.00
2023-02-02T08:41:57.492Z,41.59
2023-02-02T08:44:25.084Z,41.02
2023-02-02T08:46:53.625Z,41.29
2023-02-02T08:49:20.191Z,41.32
2023-02-02T08:51:46.661Z,40.73
2023-02-02T08:54:13.412Z,41.00
2023-02-02T08:56:40.164Z,40.84
2023-02-02T08:59:07.740Z,40.77
2023-02-02T09:01:35.572Z,40.85
2023-02-02T09:04:18.130Z,40.85
2023-02-02T09:06:45.244Z,40.64
2023-02-02T09:09:15.440Z,40.41
2023-02-02T09:11:42.443Z,40.74
2023-02-02T09:14:11.934Z,40.50
2023-02-02T09:16:38.545Z,40.35
2023-02-02T09:19:05.708Z,40.22
2023-02-02T09:21:37.172Z,40.06
2023-02-02T09:24:10.230Z,40.28
2023-02-02T09:26:38.776Z,39.88
2023-02-02T09:29:07.368Z,40.24
2023-02-02T09:31:36.773Z,40.16
2023-02-02T09:34:05.918Z,40.11
2023-02-02T09:36:33.469Z,40.01
2023-02-02T09:39:00.348Z,40.13
2023-02-02T09:41:39.584Z,40.00
2023-02-02T09:44:24.773Z,40.50
2023-02-02T09:47:13.163Z,42.57
2023-02-02T09:49:51.906Z,41.98
2023-02-02T09:52:30.000Z,42.72
2023-02-02T09:55:02.525Z,42.92
2023-02-02T09:57:36.719Z,43.44
2023-02-02T10:00:04.013Z,43.86
2023-02-02T10:02:41.029Z,44.18
2023-02-02T10:05:27.659Z,44.77
2023-02-02T10:08:01.324Z,44.83
2023-02-02T10:10:32.440Z,43.92
2023-02-02T10:13:06.880Z,43.62
2023-02-02T10:15:39.625Z,44.18
2023-02-02T10:18:20.941Z,43.23
2023-02-02T10:20:56.788Z,43.58
2023-02-02T10:23:32.332Z,43.58
2023-02-02T10:26:02.014Z,43.23
2023-02-02T10:29:04.876Z,42.83
2023-02-02T10:31:31.479Z,42.86
2023-02-02T10:34:08.881Z,42.61
2023-02-02T10:37:19.814Z,42.60
2023-02-02T10:39:49.005Z,42.30
2023-02-02T10:42:39.583Z,42.39
2023-02-02T10:45:18.123Z,42.33
2023-02-02T10:47:45.670Z,42.09
2023-02-02T10:50:12.081Z,41.97
2023-02-02T10:52:42.090Z,41.99
2023-02-02T10:55:18.805Z,41.68
2023-02-02T10:58:05.154Z,41.94
2023-02-02T11:00:43.724Z,41.84
2023-02-02T11:03:12.920Z,41.71
2023-02-02T11:05:58.212Z,41.56
2023-02-02T11:08:39.923Z,41.43
2023-02-02T11:11:28.085Z,41.42
2023-02-02T11:14:16.141Z,41.40
2023-02-02T11:16:45.402Z,41.48
2023-02-02T11:19:17.959Z,41.48
2023-02-02T11:21:50.518Z,41.42
2023-02-02T11:24:20.006Z,41.17
2023-02-02T11:26:50.589Z,41.16
2023-02-02T11:29:28.816Z,40.84
2023-02-02T11:31:55.639Z,40.99
2023-02-02T11:34:27.842Z,40.80
2023-02-02T11:36:58.158Z,40.62
2023-02-02T11:39:24.694Z,40.77
2023-02-02T11:41:51.202Z,40.60
2023-02-02T11:44:26.030Z,40.70
2023-02-02T11:46:54.050Z,40.52
2023-02-02T11:49:23.267Z,40.44
2023-02-02T11:51:58.046Z,40.30
2023-02-02T11:54:33.013Z,40.01
2023-02-02T11:57:03.249Z,40.18
2023-02-02T11:59:45.421Z,40.26
2023-02-02T12:02:32.151Z,40.36
2023-02-02T12:05:10.534Z,40.28
2023-02-02T12:07:37.622Z,40.20
2023-02-02T12:10:16.688Z,40.13
2023-02-02T12:13:02.021Z,40.11
2023-02-02T12:15:43.864Z,40.05
2023-02-02T12:18:43.926Z,39.89
2023-02-02T12:21:35.442Z,40.05
2023-02-02T12:24:24.749Z,39.80
2023-02-02T12:27:23.609Z,39.89
2023-02-02T12:30:12.127Z,40.03
2023-02-02T12:32:45.608Z,39.82
2023-02-02T12:35:41.458Z,40.03
2023-02-02T12:38:46.995Z,39.81
2023-02-02T12:41:26.798Z,39.91
2023-02-02T12:44:15.092Z,39.96
2023-02-02T12:46:48.443Z,40.09
2023-02-02T12:49:39.333Z,40.11
2023-02-02T12:52:21.034Z,40.22
2023-02-02T12:54:57.258Z,40.31
2023-02-02T12:57:33.269Z,40.46
2023-02-02T13:00:18.122Z,40.41
2023-02-02T13:02:55.210Z,40.46
2023-02-02T13:05:43.490Z,40.50
2023-02-02T13:08:15.491Z,40.44
2023-02-02T13:10:50.621Z,40.55
2023-02-02T13:13:22.344Z,40.30
2023-02-02T13:15:55.026Z,40.44
2023-02-02T13:18:36.223Z,40.40
2023-02-02T13:21:10.908Z,40.39
2023-02-02T13:23:43.395Z,40.49
2023-02-02T13:26:16.965Z,40.51
2023-02-02T13:28:50.896Z,40.50
2023-02-02T13:31:50.420Z,40.52
2023-02-02T13:34:22.929Z,40.58
2023-02-02T13:36:55.847Z,40.49
2023-02-02T13:39:42.043Z,40.49
2023-02-02T13:42:22.711Z,40.63
2023-02-02T13:45:00.431Z,40.63
2023-02-02T13:47:37.915Z,40.40
2023-02-02T13:50:13.245Z,40.45
2023-02-02T13:52:59.284Z,40.42
2023-02-02T13:55:37.641Z,40.31
2023-02-02T13:58:26.192Z,40.31
2023-02-02T14:01:00.851Z,40.34
2023-02-02T14:03:39.041Z,40.35
2023-02-02T14:06:16.889Z,40.30
2023-02-02T14:08:51.448Z,40.16
2023-02-02T14:11:48.282Z,40.30
2023-02-02T14:14:33.416Z,40.22
2023-02-02T14:17:27.195Z,40.16
2023-02-02T14:19:57.573Z,40.11
2023-02-02T14:22:44.556Z,40.08
2023-02-02T14:25:29.686Z,40.18
2023-02-02T14:28:01.079Z,40.07
2023-02-02T14:30:34.638Z,39.90
2023-02-02T14:33:40.529Z,39.94
2023-02-02T14:36:14.228Z,39.86
2023-02-02T14:39:03.180Z,39.92
2023-02-02T14:42:00.774Z,39.91
2023-02-02T14:44:28.558Z,39.79
2023-02-02T14:46:55.362Z,39.82
2023-02-02T14:49:29.292Z,39.78
2023-02-02T14:52:05.681Z,39.75
2023-02-02T14:54:36.297Z,39.56
2023-02-02T14:57:19.724Z,39.56
2023-02-02T14:59:47.653Z,39.54
2023-02-02T15:02:22.012Z,39.69
2023-02-02T15:04:49.432Z,39.63
2023-02-02T15:07:37.817Z,39.54
2023-02-02T15:10:05.624Z,39.35
2023-02-02T15:13:07.250Z,39.58
2023-02-02T15:15:36.132Z,39.58
2023-02-02T15:18:28.238Z,39.54
2023-02-02T15:20:58.957Z,39.57
2023-02-02T15:23:42.311Z,39.42
2023-02-02T15:26:17.444Z,39.53
2023-02-02T15:28:48.464Z,39.50
2023-02-02T15:31:20.303Z,39.56
2023-02-02T15:33:50.729Z,39.31
2023-02-02T15:36:25.889Z,39.42
2023-02-02T15:38:56.241Z,39.51
2023-02-02T15:41:27.743Z,39.35
2023-02-02T15:43:54.384Z,39.57
2023-02-02T15:46:26.561Z,39.57
2023-02-02T15:49:34.651Z,39.52
2023-02-02T15:52:12.492Z,39.56
2023-02-02T15:54:49.639Z,39.49
2023-02-02T15:57:27.237Z,39.79
2023-02-02T15:59:54.055Z,39.92
2023-02-02T16:02:36.496Z,39.98
2023-02-02T16:05:24.403Z,40.09
2023-02-02T16:08:03.816Z,40.04
2023-02-02T16:10:32.089Z,40.05
2023-02-02T16:12:58.805Z,40.17
2023-02-02T16:15:28.375Z,40.05
2023-02-02T16:18:07.959Z,40.17
2023-02-02T16:20:37.180Z,40.20
2023-02-02T16:23:10.911Z,40.29
2023-02-02T16:25:49.618Z,40.25
2023-02-02T16:28:18.948Z,40.16
2023-02-02T16:30:45.841Z,40.24
2023-02-02T16:33:31.159Z,40.10
2023-02-02T16:35:57.890Z,40.16
2023-02-02T16:38:35.041Z,40.32
2023-02-02T16:41:06.299Z,40.05
2023-02-02T16:43:34.015Z,40.25
2023-02-02T16:46:12.461Z,40.22
2023-02-02T16:48:41.592Z,40.18
2023-02-02T16:51:17.006Z,40.14
2023-02-02T16:53:52.289Z,40.24
2023-02-02T16:56:43.952Z,40.11
2023-02-02T16:59:25.265Z,40.09
2023-02-02T17:02:24.171Z,40.15
2023-02-02T17:05:00.709Z,40.02
2023-02-02T17:07:28.429Z,39.95
2023-02-02T17:10:13.740Z,40.14
2023-02-02T17:12:40.319Z,40.02
2023-02-02T17:15:18.818Z,40.10
2023-02-02T17:17:49.882Z,40.21
2023-02-02T17:20:17.916Z,40.20
2023-02-02T17:22:47.524Z,40.20
2023-02-02T17:25:21.423Z,40.09
2023-02-02T17:27:48.116Z,40.05
2023-02-02T17:30:17.825Z,40.04
2023-02-02T17:32:44.353Z,39.92
2023-02-02T17:35:19.207Z,39.74
2023-02-02T17:37:45.664Z,39.89
2023-02-02T17:40:17.148Z,39.91
2023-02-02T17:42:47.245Z,39.88
2023-02-02T17:45:18.217Z,39.86
2023-02-02T17:47:45.030Z,39.82
2023-02-02T17:50:12.319Z,39.80
2023-02-02T17:52:39.191Z,39.84
2023-02-02T17:55:15.650Z,39.52
2023-02-02T17:57:42.158Z,39.68
2023-02-02T18:00:10.452Z,39.54
2023-02-02T18:02:37.102Z,39.57
2023-02-02T18:05:04.932Z,39.45
2023-02-02T18:07:32.011Z,39.63
2023-02-02T18:09:58.646Z,39.48
2023-02-02T18:12:25.323Z,39.63
2023-02-02T18:14:51.846Z,39.59
2023-02-02T18:17:18.367Z,39.55
2023-02-02T18:19:45.393Z,39.57
2023-02-02T18:22:13.680Z,39.78
2023-02-02T18:24:40.901Z,39.63
2023-02-02T18:27:08.371Z,39.64
2023-02-02T18:29:35.561Z,39.70
2023-02-02T18:32:03.047Z,39.71
2023-02-02T18:34:34.195Z,39.70
2023-02-02T18:37:00.919Z,39.50
2023-02-02T18:39:27.510Z,39.68
2023-02-02T18:41:54.164Z,39.62
2023-02-02T18:44:20.782Z,39.64
2023-02-02T18:46:47.345Z,39.59
2023-02-02T18:49:13.860Z,39.62
2023-02-02T18:51:41.365Z,39.54
2023-02-02T18:54:10.375Z,39.54
2023-02-02T18:56:37.204Z,39.56
2023-02-02T18:59:05.977Z,39.53
2023-02-02T19:01:33.946Z,39.52
2023-02-02T19:04:01.369Z,39.45
2023-02-02T19:06:47.073Z,39.48
2023-02-02T19:09:16.972Z,39.50
2023-02-02T19:11:46.818Z,39.25
2023-02-02T19:14:16.684Z,39.14
2023-02-02T19:16:45.448Z,39.11
2023-02-02T19:19:21.750Z,39.23
2023-02-02T19:21:48.425Z,39.17
2023-02-02T19:24:15.029Z,39.19
2023-02-02T19:26:46.088Z,38.99
2023-02-02T19:29:24.364Z,39.15
2023-02-02T19:32:00.654Z,39.16
2023-02-02T19:34:27.247Z,39.08
2023-02-02T19:36:54.059Z,39.13
2023-02-02T19:39:26.982Z,39.16
2023-02-02T19:41:58.512Z,39.08
2023-02-02T19:44:30.441Z,38.94
2023-02-02T19:46:57.537Z,39.23
2023-02-02T19:49:32.335Z,39.19
2023-02-02T19:51:59.928Z,39.09
2023-02-02T19:54:41.014Z,39.08
2023-02-02T19:57:17.009Z,39.13
2023-02-02T19:59:46.905Z,39.02
2023-02-02T20:02:33.849Z,38.95
2023-02-02T20:05:22.987Z,39.11
2023-02-02T20:07:57.987Z,39.05
2023-02-02T20:10:46.067Z,38.96
2023-02-02T20:13:51.456Z,39.01
2023-02-02T20:16:23.380Z,39.00
2023-02-02T20:18:55.308Z,38.95
2023-02-02T20:21:42.514Z,39.02
2023-02-02T20:24:18.805Z,39.13
2023-02-02T20:26:46.024Z,39.23
2023-02-02T20:29:20.367Z,39.08
2023-02-02T20:31:48.311Z,38.87
2023-02-02T20:34:40.538Z,38.97
2023-02-02T20:37:13.121Z,39.10
2023-02-02T20:40:01.559Z,39.06
2023-02-02T20:42:29.231Z,39.11
2023-02-02T20:44:58.062Z,39.16
2023-02-02T20:47:24.713Z,39.19
2023-02-02T20:49:51.276Z,39.21
2023-02-02T20:52:23.489Z,39.07
2023-02-02T20:54:52.000Z,39.19
2023-02-02T20:57:19.149Z,39.00
2023-02-02T20:59:45.815Z,39.04
2023-02-02T21:02:18.804Z,39.25
2023-02-02T21:04:49.718Z,38.99
2023-02-02T21:07:18.672Z,39.24
2023-02-02T21:09:46.634Z,39.02
2023-02-02T21:12:13.290Z,39.15
2023-02-02T21:14:40.180Z,39.00
2023-02-02T21:17:14.832Z,39.03
2023-02-02T21:19:42.788Z,39.27
2023-02-02T21:22:09.497Z,39.07
2023-02-02T21:24:35.990Z,39.09
2023-02-02T21:27:04.499Z,39.17
2023-02-02T21:29:32.025Z,39.22
2023-02-02T21:32:01.412Z,39.19
2023-02-02T21:34:29.085Z,39.44
2023-02-02T21:36:58.024Z,39.28
2023-02-02T21:39:34.447Z,39.28
2023-02-02T21:42:00.879Z,39.37
2023-02-02T21:44:27.505Z,39.44
2023-02-02T21:46:54.041Z,39.17
2023-02-02T21:49:35.407Z,39.33
2023-02-02T21:52:12.320Z,39.24
2023-02-02T21:54:39.726Z,39.21
2023-02-02T21:57:36.550Z,39.24
2023-02-02T22:00:33.200Z,39.27
2023-02-02T22:03:00.241Z,39.09
2023-02-02T22:05:33.988Z,39.14
2023-02-02T22:08:02.617Z,39.08
2023-02-02T22:10:38.673Z,39.18
2023-02-02T22:13:23.732Z,39.11
2023-02-02T22:15:53.460Z,39.13
2023-02-02T22:18:23.034Z,39.15
2023-02-02T22:20:51.226Z,39.22
2023-02-02T22:23:19.990Z,39.07
2023-02-02T22:25:48.558Z,39.07
2023-02-02T22:28:23.488Z,39.05
2023-02-02T22:30:52.194Z,38.88
2023-02-02T22:33:19.140Z,38.89
2023-02-02T22:35:46.410Z,38.95
2023-02-02T22:38:21.200Z,38.97
2023-02-02T22:40:48.861Z,38.83
2023-02-02T22:43:16.603Z,38.93
2023-02-02T22:45:44.178Z,38.75
2023-02-02T22:48:11.858Z,38.86
2023-02-02T22:50:38.343Z,38.93
2023-02-02T22:53:05.356Z,38.95
2023-02-02T22:55:32.750Z,38.94
2023-02-02T22:57:59.302Z,38.81
2023-02-02T23:00:30.748Z,38.74
2023-02-02T23:02:57.669Z,38.85
2023-02-02T23:05:25.799Z,38.83
2023-02-02T23:07:53.589Z,38.89
2023-02-02T23:10:23.789Z,38.93
2023-02-02T23:12:54.837Z,38.93
2023-02-02T23:15:21.298Z,38.84
2023-02-02T23:17:47.948Z,38.67
2023-02-02T23:20:15.403Z,38.77
2023-02-02T23:22:42.016Z,38.81
2023-02-02T23:25:08.965Z,38.79
2023-02-02T23:27:35.464Z,38.68
2023-02-02T23:30:02.135Z,38.69
2023-02-02T23:32:28.737Z,38.79
2023-02-02T23:34:55.233Z,38.76
2023-02-02T23:37:21.772Z,38.79
2023-02-02T23:39:48.246Z,38.82
2023-02-02T23:42:14.754Z,38.74
2023-02-02T23:44:41.256Z,38.72
2023-02-02T23:47:09.072Z,38.70
2023-02-02T23:49:36.379Z,38.70
2023-02-02T23:52:03.071Z,38.78
2023-02-02T23:54:30.246Z,38.88
2023-02-02T23:56:57.239Z,38.73
2023-02-02T23:59:23.840Z,38.85
